Time;durP1;ratioP1;P1;durP2;ratioP2;P2;SDS_P1;SDS_P2;PMS_P1;PMS_P2;Temp;Humidity;BMP_temperature;BMP_pressure;BME280_temperature;BME280_humidity;BME280_pressure;Samples;Min_cycle;Max_cycle;Signal;HPM_P1;HPM_P2
2021/05/21 00:00:38;;;;;;;1.17;0.93;;;;;;;10.17;81.14;93720.47;5075129;28;20198;-77
2021/05/21 00:03:04;;;;;;;0.80;0.80;;;;;;;10.28;80.61;93713.88;5076962;28;20289;-77
2021/05/21 00:05:30;;;;;;;1.80;1.10;;;;;;;10.27;81.29;93720.06;5074822;28;20606;-77
2021/05/21 00:07:56;;;;;;;1.13;0.90;;;;;;;10.26;80.54;93724.50;5074897;28;20238;-76
2021/05/21 00:10:22;;;;;;;2.17;1.17;;;;;;;10.21;81.92;93726.91;5074781;28;20225;-79
2021/05/21 00:12:48;;;;;;;2.40;0.90;;;;;;;10.07;83.27;93723.44;5074478;28;20704;-77
2021/05/21 00:15:16;;;;;;;2.13;0.90;;;;;;;10.00;82.77;93718.22;5074800;28;20198;-76
2021/05/21 00:17:42;;;;;;;2.30;0.93;;;;;;;9.96;83.27;93714.41;5074539;28;20712;-77
2021/05/21 00:20:09;;;;;;;1.37;1.00;;;;;;;9.91;83.41;93705.56;5073460;28;20206;-77
2021/05/21 00:22:36;;;;;;;3.57;1.20;;;;;;;9.89;82.24;93711.00;5074447;28;20235;-77
2021/05/21 00:25:02;;;;;;;3.53;1.20;;;;;;;9.96;83.31;93706.59;5074336;28;20199;-77
2021/05/21 00:27:28;;;;;;;2.07;1.00;;;;;;;9.97;82.60;93707.38;5074637;28;20203;-76
2021/05/21 00:29:54;;;;;;;1.43;1.20;;;;;;;9.95;82.21;93707.59;5074263;28;20205;-77
2021/05/21 00:32:20;;;;;;;0.97;0.90;;;;;;;10.03;81.87;93709.22;5074347;28;20203;-78
2021/05/21 00:34:47;;;;;;;1.93;0.90;;;;;;;10.00;82.00;93688.75;5074229;28;20226;-76
2021/05/21 00:37:13;;;;;;;1.47;1.00;;;;;;;9.96;82.11;93692.75;5074283;28;20205;-77
2021/05/21 00:39:38;;;;;;;1.03;0.97;;;;;;;9.96;81.32;93693.56;5074012;28;20654;-76
2021/05/21 00:42:07;;;;;;;1.33;0.87;;;;;;;9.72;84.54;93691.50;5074336;28;20654;-77
2021/05/21 00:44:33;;;;;;;4.47;1.30;;;;;;;9.57;84.61;93686.44;5074178;28;20210;-77
2021/05/21 00:47:01;;;;;;;0.90;0.80;;;;;;;9.43;86.37;93683.78;5074023;28;20238;-77
2021/05/21 00:49:28;;;;;;;3.17;1.13;;;;;;;9.33;86.31;93672.94;5073933;28;20657;-78
2021/05/21 00:51:54;;;;;;;1.40;1.00;;;;;;;9.23;86.02;93678.50;5073907;28;20195;-77
2021/05/21 00:54:20;;;;;;;1.90;0.70;;;;;;;9.23;85.79;93656.88;5073749;28;20318;-77
2021/05/21 00:56:47;;;;;;;2.47;0.90;;;;;;;9.29;85.41;93665.72;5074072;28;20199;-77
2021/05/21 00:59:17;;;;;;;1.90;0.87;;;;;;;9.15;87.44;93670.88;5073741;28;20654;-77
2021/05/21 01:01:45;;;;;;;1.03;0.80;;;;;;;9.07;87.87;93663.22;5073904;28;20198;-76
2021/05/21 01:04:13;;;;;;;1.03;0.93;;;;;;;9.03;87.63;93672.44;5073763;28;20234;-76
2021/05/21 01:06:40;;;;;;;1.00;0.90;;;;;;;9.08;88.26;93668.22;5073657;28;20256;-76
2021/05/21 01:09:08;;;;;;;2.57;1.00;;;;;;;8.96;90.21;93656.78;5073518;28;20230;-77
2021/05/21 01:11:34;;;;;;;3.03;1.10;;;;;;;8.83;91.06;93659.31;5073588;28;20229;-77
2021/05/21 01:14:00;;;;;;;1.60;0.73;;;;;;;8.87;90.74;93663.91;5073379;28;20253;-76
2021/05/21 01:16:26;;;;;;;1.23;0.97;;;;;;;8.90;89.09;93657.53;5073599;28;20651;-76
2021/05/21 01:18:52;;;;;;;1.33;1.03;;;;;;;8.86;89.96;93658.94;5073464;28;20244;-77
2021/05/21 01:21:19;;;;;;;0.90;0.90;;;;;;;8.77;91.22;93650.44;5073252;28;20199;-77
2021/05/21 01:23:45;;;;;;;2.57;0.80;;;;;;;8.80;88.37;93657.09;5072188;28;20499;-76
2021/05/21 01:26:17;;;;;;;1.43;0.90;;;;;;;8.79;91.02;93651.09;5073426;28;20199;-78
2021/05/21 01:28:43;;;;;;;1.57;1.17;;;;;;;8.83;87.14;93652.28;5073358;28;20198;-77
2021/05/21 01:31:09;;;;;;;1.07;0.90;;;;;;;8.82;88.61;93645.47;5073065;28;20203;-76
2021/05/21 01:33:37;;;;;;;1.87;0.90;;;;;;;8.93;86.92;93636.31;5073161;28;20239;-77
2021/05/21 01:36:03;;;;;;;10.13;1.40;;;;;;;9.35;81.69;93633.69;5072934;28;20653;-75
2021/05/21 01:38:30;;;;;;;1.93;0.90;;;;;;;9.30;83.37;93628.25;5073352;28;20247;-76
2021/05/21 01:40:59;;;;;;;2.00;0.77;;;;;;;9.45;82.40;93627.06;5073148;28;20221;-78
2021/05/21 01:43:25;;;;;;;1.53;0.83;;;;;;;9.40;83.21;93621.66;5073112;28;20194;-77
2021/05/21 01:45:51;;;;;;;0.90;0.60;;;;;;;9.45;82.30;93613.25;5073179;28;20204;-78
2021/05/21 01:48:20;;;;;;;2.93;0.70;;;;;;;9.22;85.16;93608.38;5072995;28;20199;-76
2021/05/21 01:50:46;;;;;;;2.43;0.87;;;;;;;9.07;85.63;93611.13;5072938;28;20198;-77
2021/05/21 01:53:13;;;;;;;0.80;0.80;;;;;;;8.92;87.54;93605.28;5073054;28;20253;-77
2021/05/21 01:55:49;;;;;;;1.23;0.70;;;;;;;8.75;89.20;93613.41;5072977;28;20195;-77
2021/05/21 01:58:15;;;;;;;2.60;0.77;;;;;;;8.72;86.74;93608.59;5072706;28;20293;-76
2021/05/21 02:00:41;;;;;;;1.13;0.80;;;;;;;8.90;85.28;93602.88;5072911;28;20245;-77
2021/05/21 02:03:07;;;;;;;3.00;0.80;;;;;;;8.88;85.89;93597.84;5072760;28;20206;-77
2021/05/21 02:05:34;;;;;;;0.80;0.70;;;;;;;8.76;87.86;93599.41;5073958;28;20436;-76
2021/05/21 02:08:00;;;;;;;2.50;0.87;;;;;;;8.87;85.45;93596.22;5072836;28;20293;-78
2021/05/21 02:10:26;;;;;;;0.80;0.73;;;;;;;8.84;86.19;93591.44;5072771;28;20199;-76
2021/05/21 02:12:53;;;;;;;1.23;0.90;;;;;;;8.93;85.57;93604.28;5072673;28;20692;-76
2021/05/21 02:15:19;;;;;;;1.63;0.90;;;;;;;9.00;85.83;93594.69;5072634;28;20199;-78
2021/05/21 02:17:45;;;;;;;3.80;0.90;;;;;;;9.15;83.80;93589.34;5072742;28;20203;-76
2021/05/21 02:20:13;;;;;;;1.17;1.07;;;;;;;9.33;84.37;93578.38;5072725;28;20853;-77
2021/05/21 02:22:40;;;;;;;2.53;1.00;;;;;;;9.14;84.30;93585.91;5072552;28;20284;-77
2021/05/21 02:25:06;;;;;;;0.87;0.80;;;;;;;9.42;81.42;93582.38;5072626;28;20241;-77
2021/05/21 02:27:32;;;;;;;2.20;0.90;;;;;;;9.57;81.39;93575.16;5072658;28;20203;-76
2021/05/21 02:30:00;;;;;;;0.77;0.77;;;;;;;9.65;79.94;93563.75;5072460;28;20299;-77
2021/05/21 02:32:26;;;;;;;1.87;0.80;;;;;;;9.43;82.62;93568.34;5072387;28;20716;-78
2021/05/21 02:34:52;;;;;;;1.60;0.70;;;;;;;9.43;81.90;93569.16;5072537;28;20251;-77
2021/05/21 02:37:18;;;;;;;4.43;0.90;;;;;;;9.16;84.97;93563.09;5072623;28;20206;-77
2021/05/21 02:39:44;;;;;;;2.27;0.90;;;;;;;9.32;82.92;93566.31;5072571;28;20199;-77
2021/05/21 02:42:10;;;;;;;0.80;0.77;;;;;;;9.31;84.09;93562.94;5072446;28;20264;-77
2021/05/21 02:44:37;;;;;;;1.03;1.00;;;;;;;9.26;83.16;93554.91;5076027;28;20654;-77
2021/05/21 02:47:04;;;;;;;1.47;1.00;;;;;;;9.24;85.45;93562.09;5076284;28;20207;-77
2021/05/21 02:49:32;;;;;;;0.80;0.77;;;;;;;9.15;85.71;93555.47;5076242;28;20236;-76
2021/05/21 02:51:57;;;;;;;1.50;0.90;;;;;;;9.24;83.69;93549.91;5076260;28;20285;-79
2021/05/21 02:54:24;;;;;;;1.20;0.77;;;;;;;9.05;85.67;93540.22;5076096;28;20250;-76
2021/05/21 02:56:50;;;;;;;2.17;0.90;;;;;;;8.94;85.78;93546.78;5076209;28;20210;-77
2021/05/21 02:59:16;;;;;;;1.43;0.70;;;;;;;8.89;87.11;93547.41;5076092;28;20195;-77
2021/05/21 03:01:42;;;;;;;1.00;0.90;;;;;;;8.83;87.25;93537.75;5075882;28;20526;-77
2021/05/21 03:04:09;;;;;;;1.33;0.70;;;;;;;8.59;91.13;93536.47;5076112;28;20203;-76
2021/05/21 03:06:35;;;;;;;0.97;0.87;;;;;;;8.63;90.55;93529.88;5076145;28;20210;-77
2021/05/21 03:09:01;;;;;;;0.93;0.80;;;;;;;8.64;89.84;93531.50;5075872;28;20202;-78
2021/05/21 03:11:27;;;;;;;5.93;1.27;;;;;;;8.66;89.22;93520.88;5075906;28;20209;-76
2021/05/21 03:13:53;;;;;;;2.67;1.03;;;;;;;8.83;88.45;93527.34;5075671;28;20234;-76
2021/05/21 03:16:19;;;;;;;3.43;1.00;;;;;;;8.89;88.20;93520.53;5075928;28;20724;-76
2021/05/21 03:18:45;;;;;;;1.80;1.00;;;;;;;8.97;88.09;93524.78;5075938;28;20614;-76
2021/05/21 03:21:12;;;;;;;1.37;0.97;;;;;;;8.88;88.28;93527.56;5075764;28;20256;-76
2021/05/21 03:23:38;;;;;;;4.43;1.17;;;;;;;8.76;88.43;93520.50;5075466;28;20234;-77
2021/05/21 03:26:04;;;;;;;2.87;1.10;;;;;;;8.98;87.81;93523.78;5075650;28;20649;-77
2021/05/21 03:28:30;;;;;;;1.10;0.80;;;;;;;8.92;87.90;93524.56;5075450;28;20206;-76
2021/05/21 03:30:56;;;;;;;2.40;0.87;;;;;;;8.80;88.72;93517.31;5075692;28;20305;-77
2021/05/21 03:33:22;;;;;;;2.97;0.80;;;;;;;8.88;85.97;93504.13;5075320;28;20226;-77
2021/05/21 03:35:48;;;;;;;1.27;0.90;;;;;;;8.98;85.17;93519.38;5075524;28;20281;-77
2021/05/21 03:38:14;;;;;;;1.27;0.87;;;;;;;8.98;85.44;93524.59;5075453;28;20673;-77
2021/05/21 03:40:42;;;;;;;2.63;0.90;;;;;;;8.88;86.00;93524.97;5075390;28;20202;-77
2021/05/21 03:43:08;;;;;;;2.90;0.90;;;;;;;8.75;87.84;93518.91;5075130;28;20206;-77
2021/05/21 03:45:35;;;;;;;1.60;1.00;;;;;;;8.62;88.12;93517.06;5075386;28;20195;-77
2021/05/21 03:48:01;;;;;;;1.27;1.00;;;;;;;8.75;87.89;93517.09;5075364;28;20210;-77
2021/05/21 03:50:27;;;;;;;2.83;0.80;;;;;;;8.66;89.46;93523.47;5075212;28;20213;-77
2021/05/21 03:52:54;;;;;;;0.70;0.70;;;;;;;8.74;88.27;93515.50;5074960;28;20795;-77
2021/05/21 03:55:21;;;;;;;1.90;1.10;;;;;;;8.61;90.96;93512.84;5075052;28;20210;-77
2021/05/21 03:57:47;;;;;;;2.47;0.80;;;;;;;8.51;89.86;93511.44;5075625;28;20249;-77
2021/05/21 04:00:16;;;;;;;3.50;1.23;;;;;;;8.44;89.83;93518.41;5075049;28;20210;-76
2021/05/21 04:02:42;;;;;;;1.40;0.90;;;;;;;8.31;91.51;93508.72;5075077;28;20206;-77
2021/05/21 04:05:09;;;;;;;2.20;1.10;;;;;;;8.43;90.68;93510.78;5074800;28;20362;-77
2021/05/21 04:07:35;;;;;;;2.90;1.00;;;;;;;8.22;94.54;93498.66;5075003;28;20205;-77
2021/05/21 04:10:01;;;;;;;1.80;1.10;;;;;;;8.42;91.24;93503.94;5077381;28;20194;-77
2021/05/21 04:12:28;;;;;;;3.43;1.10;;;;;;;8.52;91.85;93496.59;5074630;28;20209;-77
2021/05/21 04:14:55;;;;;;;3.33;1.03;;;;;;;8.57;91.29;93491.63;5074633;28;20701;-77
2021/05/21 04:17:21;;;;;;;3.47;0.90;;;;;;;8.62;93.57;93489.22;5074644;28;20649;-77
2021/05/21 04:19:47;;;;;;;1.10;0.97;;;;;;;8.85;88.55;93488.09;5074462;28;20650;-77
2021/05/21 04:22:13;;;;;;;3.67;1.20;;;;;;;8.80;91.07;93483.50;5074434;28;20234;-76
2021/05/21 04:24:39;;;;;;;1.03;0.90;;;;;;;8.79;91.52;93483.69;5073916;28;20202;-77
2021/05/21 04:27:05;;;;;;;4.80;0.90;;;;;;;8.57;93.76;93486.41;5074437;28;20199;-77
2021/05/21 04:29:33;;;;;;;5.20;0.97;;;;;;;8.59;92.81;93481.03;5074607;28;20206;-77
2021/05/21 04:31:59;;;;;;;1.43;0.90;;;;;;;8.69;91.64;93489.25;5074418;28;20293;-77
2021/05/21 04:34:25;;;;;;;1.10;1.00;;;;;;;9.13;87.11;93490.56;5074183;28;20606;-77
2021/05/21 04:36:51;;;;;;;1.23;0.83;;;;;;;9.07;88.53;93488.75;5074259;28;20207;-76
2021/05/21 04:39:17;;;;;;;1.80;1.03;;;;;;;8.88;91.96;93485.91;5074128;28;20539;-75
2021/05/21 04:41:43;;;;;;;4.03;1.00;;;;;;;8.74;93.01;93479.06;5074345;28;20206;-77
2021/05/21 04:44:11;;;;;;;1.67;1.17;;;;;;;8.68;94.65;93479.88;5074132;28;20199;-75
2021/05/21 04:46:38;;;;;;;1.20;1.03;;;;;;;8.80;93.43;93475.69;5073809;28;20195;-79
2021/05/21 04:49:04;;;;;;;2.00;1.00;;;;;;;8.93;94.09;93466.31;5073954;28;20290;-78
2021/05/21 04:51:30;;;;;;;1.50;0.97;;;;;;;9.05;94.33;93472.53;5073938;28;20199;-78
2021/05/21 04:53:56;;;;;;;1.23;0.83;;;;;;;9.16;92.43;93469.34;5073643;28;20226;-79
2021/05/21 04:56:22;;;;;;;0.73;0.73;;;;;;;9.26;87.51;93453.31;5073831;28;20209;-76
2021/05/21 04:58:48;;;;;;;1.73;0.90;;;;;;;9.46;90.08;93453.31;5073968;28;20199;-76
2021/05/21 05:01:14;;;;;;;0.80;0.70;;;;;;;9.71;88.28;93450.06;5073804;28;20198;-76
2021/05/21 05:03:41;;;;;;;2.27;1.00;;;;;;;9.86;86.64;93450.66;5073656;28;20207;-77
2021/05/21 05:06:07;;;;;;;2.20;0.83;;;;;;;9.98;86.83;93441.19;5073235;28;20203;-77
2021/05/21 05:08:32;;;;;;;1.50;0.90;;;;;;;10.12;87.48;93433.31;5073564;28;20202;-75
2021/05/21 05:10:58;;;;;;;3.03;1.10;;;;;;;10.21;84.10;93429.50;5073800;28;20206;-77
2021/05/21 05:13:24;;;;;;;1.63;1.17;;;;;;;10.39;83.23;93421.00;5072200;28;20219;-77
2021/05/21 05:15:50;;;;;;;5.00;1.17;;;;;;;10.44;80.07;93413.38;5071591;28;20207;-78
2021/05/21 05:18:16;;;;;;;1.00;0.90;;;;;;;10.53;81.17;93412.09;5071961;28;20198;-78
2021/05/21 05:20:44;;;;;;;3.70;0.97;;;;;;;10.61;80.02;93410.25;5073292;28;20199;-78
2021/05/21 05:23:11;;;;;;;2.17;0.80;;;;;;;10.82;79.48;93409.13;5073210;28;20227;-77
2021/05/21 05:25:40;;;;;;;1.87;0.90;;;;;;;10.88;80.47;93408.28;5073456;28;20199;-78
2021/05/21 05:28:06;;;;;;;1.57;1.00;;;;;;;11.01;80.24;93396.97;5073279;28;20673;-77
2021/05/21 05:30:32;;;;;;;1.23;0.80;;;;;;;10.85;79.23;93401.66;5073386;28;20202;-78
2021/05/21 05:32:58;;;;;;;1.03;0.70;;;;;;;10.99;79.53;93397.16;5073069;28;20600;-78
2021/05/21 05:35:24;;;;;;;2.20;0.83;;;;;;;11.12;78.04;93388.41;5073103;28;20198;-77
2021/05/21 05:37:53;;;;;;;0.80;0.80;;;;;;;11.21;78.82;93381.91;5073295;28;20194;-78
2021/05/21 05:40:19;;;;;;;1.27;0.87;;;;;;;11.45;74.83;93384.72;5073186;28;20205;-76
2021/05/21 05:42:45;;;;;;;1.00;0.80;;;;;;;11.75;79.96;93387.44;5073201;28;20211;-77
2021/05/21 05:45:12;;;;;;;1.20;1.00;;;;;;;12.37;72.86;93387.38;5072992;28;20207;-77
2021/05/21 05:47:38;;;;;;;0.90;0.70;;;;;;;12.63;74.85;93382.03;5072987;28;20780;-79
2021/05/21 05:50:05;;;;;;;1.23;0.80;;;;;;;12.63;68.92;93379.41;5072960;28;20205;-77
2021/05/21 05:52:31;;;;;;;2.57;0.77;;;;;;;13.01;69.00;93375.63;5072923;28;20195;-79
2021/05/21 05:54:58;;;;;;;1.30;0.83;;;;;;;13.05;68.66;93382.78;5073095;28;20751;-77
2021/05/21 05:57:24;;;;;;;2.70;0.77;;;;;;;12.94;70.62;93384.38;5072865;28;20198;-77
2021/05/21 05:59:50;;;;;;;1.67;0.90;;;;;;;13.10;69.47;93385.53;5072942;28;20598;-78
2021/05/21 06:02:17;;;;;;;0.93;0.77;;;;;;;13.40;66.55;93389.16;5072879;28;20205;-79
2021/05/21 06:04:43;;;;;;;1.63;0.70;;;;;;;13.45;70.50;93395.28;5073046;28;20202;-79
2021/05/21 06:07:09;;;;;;;0.80;0.70;;;;;;;13.11;69.95;93394.22;5073131;28;20256;-79
2021/05/21 06:09:35;;;;;;;1.30;0.77;;;;;;;12.80;73.58;93396.06;5073195;28;20202;-78
2021/05/21 06:12:02;;;;;;;1.43;0.70;;;;;;;12.87;68.32;93396.78;5072964;28;20268;-79
2021/05/21 06:14:28;;;;;;;3.27;0.80;;;;;;;12.91;68.26;93389.28;5072621;28;20226;-78
2021/05/21 06:16:54;;;;;;;1.60;0.70;;;;;;;12.51;72.00;93379.34;5075220;28;20203;-78
2021/05/21 06:19:20;;;;;;;1.50;0.90;;;;;;;12.51;73.58;93385.38;5076075;28;20198;-79
2021/05/21 06:21:46;;;;;;;0.97;0.80;;;;;;;12.83;67.79;93387.75;5076595;28;20202;-77
2021/05/21 06:24:12;;;;;;;1.63;0.90;;;;;;;13.00;69.34;93382.69;5076944;28;20198;-78
2021/05/21 06:26:41;;;;;;;0.90;0.70;;;;;;;13.45;67.87;93378.78;5076921;28;20282;-78
2021/05/21 06:29:07;;;;;;;1.50;0.73;;;;;;;13.64;69.29;93377.63;5076596;28;20337;-78
2021/05/21 06:31:33;;;;;;;0.97;0.60;;;;;;;13.72;66.16;93388.81;5076761;28;20209;-79
2021/05/21 06:33:59;;;;;;;1.70;0.77;;;;;;;13.69;67.64;93379.59;5076380;28;20226;-78
2021/05/21 06:36:25;;;;;;;2.37;0.90;;;;;;;13.30;69.75;93377.34;5076784;28;20281;-77
2021/05/21 06:38:51;;;;;;;1.53;0.87;;;;;;;13.25;68.87;93373.81;5076680;28;20238;-77
2021/05/21 06:41:18;;;;;;;2.53;0.80;;;;;;;13.06;69.23;93375.75;5076619;28;20203;-78
2021/05/21 06:43:44;;;;;;;0.70;0.70;;;;;;;13.42;69.75;93373.97;5076548;28;20211;-78
2021/05/21 06:46:11;;;;;;;1.03;0.63;;;;;;;13.74;67.04;93369.19;5076427;28;20194;-77
2021/05/21 06:48:37;;;;;;;0.73;0.60;;;;;;;13.98;67.80;93362.06;5076242;28;20203;-78
2021/05/21 06:51:06;;;;;;;7.07;0.70;;;;;;;14.05;68.81;93365.38;5076527;28;20213;-78
2021/05/21 06:53:32;;;;;;;4.27;0.80;;;;;;;14.24;67.07;93370.47;5076314;28;20237;-79
2021/05/21 06:55:58;;;;;;;1.85;0.80;;;;;;;14.17;66.14;93364.53;5076299;28;20207;-78
2021/05/21 06:58:26;;;;;;;1.10;0.70;;;;;;;14.38;67.36;93361.28;5076186;28;20201;-77
2021/05/21 07:00:53;;;;;;;1.90;0.90;;;;;;;14.40;67.66;93353.94;5075996;28;20201;-78
2021/05/21 07:03:20;;;;;;;0.85;0.60;;;;;;;14.24;66.02;93344.22;5076238;28;20252;-77
2021/05/21 07:05:49;;;;;;;1.33;0.68;;;;;;;14.35;67.85;93356.47;5076152;28;20207;-79
2021/05/21 07:08:17;;;;;;;4.07;0.80;;;;;;;14.38;68.89;93355.22;5075896;28;20657;-79
2021/05/21 07:10:43;;;;;;;2.40;0.75;;;;;;;14.35;69.00;93351.22;5075817;28;20603;-78
2021/05/21 07:13:11;;;;;;;1.52;0.70;;;;;;;14.40;69.66;93348.69;5075881;28;20280;-78
2021/05/21 07:15:37;;;;;;;1.45;0.70;;;;;;;14.64;68.33;93351.28;5075739;28;20199;-78
2021/05/21 07:18:04;;;;;;;2.60;1.02;;;;;;;14.58;70.30;93339.84;5075936;28;20660;-78
2021/05/21 07:20:31;;;;;;;1.02;0.70;;;;;;;14.58;67.97;93331.94;5075828;28;20203;-78
2021/05/21 07:22:57;;;;;;;6.15;0.70;;;;;;;14.87;66.51;93336.41;5075459;28;20378;-78
2021/05/21 07:25:23;;;;;;;4.03;0.80;;;;;;;14.92;64.93;93333.84;5075678;28;20297;-77
2021/05/21 07:27:49;;;;;;;2.78;0.55;;;;;;;15.22;62.87;93341.47;5075535;28;20235;-79
2021/05/21 07:30:16;;;;;;;1.00;0.60;;;;;;;15.04;65.23;93336.41;5074983;28;20207;-78
2021/05/21 07:32:45;;;;;;;1.42;0.80;;;;;;;14.90;64.82;93335.94;5075708;28;20195;-78
2021/05/21 07:35:11;;;;;;;3.72;0.52;;;;;;;14.76;65.29;93340.72;5075402;28;20273;-77
2021/05/21 07:37:39;;;;;;;1.27;0.60;;;;;;;14.58;65.72;93336.41;5075445;28;20573;-77
2021/05/21 07:40:07;;;;;;;1.05;0.60;;;;;;;14.58;62.51;93333.78;5075512;28;20211;-78
2021/05/21 07:42:33;;;;;;;2.38;0.95;;;;;;;14.56;63.09;93346.38;5075161;28;20206;-78
2021/05/21 07:44:59;;;;;;;1.00;0.73;;;;;;;14.72;63.12;93352.72;5075134;28;20707;-78
2021/05/21 07:47:25;;;;;;;2.28;0.93;;;;;;;14.53;62.59;93355.50;5075437;28;20199;-78
2021/05/21 07:49:51;;;;;;;0.75;0.75;;;;;;;14.77;64.33;93358.88;5075314;28;20199;-78
2021/05/21 07:52:17;;;;;;;0.60;0.60;;;;;;;14.73;61.29;93364.81;5075403;28;20691;-78
2021/05/21 07:54:44;;;;;;;1.03;0.50;;;;;;;14.63;61.79;93362.81;5075121;28;20230;-77
2021/05/21 07:57:11;;;;;;;1.00;0.57;;;;;;;14.43;61.89;93363.19;5075112;28;20195;-78
2021/05/21 07:59:37;;;;;;;2.17;0.70;;;;;;;14.37;63.00;93357.06;5075020;28;20202;-76
2021/05/21 08:02:05;;;;;;;1.93;0.70;;;;;;;14.22;64.49;93351.50;5075137;28;20195;-76
2021/05/21 08:04:31;;;;;;;1.27;0.70;;;;;;;14.08;64.40;93361.47;5075049;28;20210;-78
2021/05/21 08:06:57;;;;;;;1.33;0.70;;;;;;;13.84;67.38;93364.16;5075055;28;20206;-77
2021/05/21 08:09:23;;;;;;;1.13;0.70;;;;;;;13.87;66.27;93360.25;5077430;28;20256;-77
2021/05/21 08:11:50;;;;;;;6.27;0.70;;;;;;;13.86;66.25;93358.69;5074844;28;20290;-78
2021/05/21 08:14:16;;;;;;;1.07;0.70;;;;;;;14.03;65.79;93350.88;5074675;28;20276;-78
2021/05/21 08:16:42;;;;;;;3.63;1.00;;;;;;;13.83;65.76;93354.69;5074604;28;20271;-77
2021/05/21 08:19:08;;;;;;;3.50;0.70;;;;;;;13.46;69.13;93362.81;5074553;28;20469;-78
2021/05/21 08:21:35;;;;;;;1.80;0.83;;;;;;;13.46;70.09;93362.03;5074607;28;20259;-78
2021/05/21 08:24:01;;;;;;;1.73;0.70;;;;;;;13.72;70.55;93362.56;5074969;28;20205;-77
2021/05/21 08:26:27;;;;;;;3.23;0.70;;;;;;;13.57;70.76;93361.19;5074443;28;20691;-74
2021/05/21 08:28:55;;;;;;;1.57;0.80;;;;;;;13.28;72.26;93368.94;5074574;28;20207;-80
2021/05/21 08:31:22;;;;;;;2.73;0.93;;;;;;;12.81;72.15;93379.34;5074566;28;20206;-78
2021/05/21 08:33:48;;;;;;;0.93;0.67;;;;;;;12.53;75.99;93387.78;5074374;28;20232;-77
2021/05/21 08:36:15;;;;;;;1.03;0.77;;;;;;;12.38;77.32;93382.94;5074377;28;20202;-78
2021/05/21 08:38:44;;;;;;;0.87;0.80;;;;;;;12.29;78.79;93387.69;5074277;28;20213;-77
2021/05/21 08:41:15;;;;;;;3.30;0.70;;;;;;;12.09;81.83;93397.56;5073277;28;20205;-76
2021/05/21 08:43:45;;;;;;;1.20;0.90;;;;;;;11.99;84.36;93400.69;5074278;28;20242;-76
2021/05/21 08:46:12;;;;;;;1.13;0.83;;;;;;;11.70;87.28;93402.19;5074167;28;20198;-77
2021/05/21 08:48:39;;;;;;;1.70;0.90;;;;;;;11.41;90.27;93402.66;5074019;28;20684;-79
2021/05/21 08:51:05;;;;;;;1.80;0.93;;;;;;;11.10;92.13;93406.91;5074092;28;20260;-77
2021/05/21 08:53:31;;;;;;;1.67;1.00;;;;;;;10.89;96.72;93415.09;5073726;28;20210;-79
2021/05/21 08:55:59;;;;;;;0.80;0.80;;;;;;;10.65;100.00;93435.72;5074171;28;20286;-77
2021/05/21 08:58:25;;;;;;;1.83;1.00;;;;;;;10.53;100.00;93440.81;5073968;28;20206;-77
2021/05/21 09:00:51;;;;;;;2.67;1.00;;;;;;;10.51;100.00;93439.44;5073903;28;20195;-76
2021/05/21 09:03:20;;;;;;;1.73;0.90;;;;;;;10.44;96.95;93429.03;5073738;28;20199;-77
2021/05/21 09:06:13;;;;;;;1.37;1.00;;;;;;;10.24;100.00;93436.91;5073768;28;20199;-77
2021/05/21 09:08:42;;;;;;;0.93;0.90;;;;;;;10.30;100.00;93433.44;5073747;28;20205;-77
2021/05/21 09:11:29;;;;;;;2.33;1.00;;;;;;;10.55;100.00;93435.38;5073764;28;20199;-77
2021/05/21 09:13:58;;;;;;;3.25;1.77;;;;;;;10.90;100.00;93445.44;5073385;28;20557;-78
2021/05/21 09:16:26;;;;;;;3.67;1.17;;;;;;;11.00;100.00;93448.38;5073375;28;20203;-76
2021/05/21 09:19:05;;;;;;;6.70;1.60;;;;;;;11.01;100.00;93442.16;5073396;28;20668;-78
2021/05/21 09:21:57;;;;;;;3.23;1.73;;;;;;;11.27;100.00;93438.56;5073531;28;20209;-77
2021/05/21 09:24:26;;;;;;;3.73;1.30;;;;;;;11.60;100.00;93431.44;5073381;28;20201;-77
2021/05/21 09:26:53;;;;;;;3.50;1.10;;;;;;;11.51;100.00;93432.72;5073273;28;20228;-77
2021/05/21 09:29:35;;;;;;;1.30;0.80;;;;;;;11.17;100.00;93429.59;5073374;28;20622;-78
2021/05/21 09:32:15;;;;;;;2.50;0.83;;;;;;;10.96;100.00;93430.72;5073397;28;20186;-76
2021/05/21 09:34:46;;;;;;;1.50;0.80;;;;;;;10.69;100.00;93426.47;5073157;28;20234;-77
2021/05/21 09:37:21;;;;;;;2.83;0.80;;;;;;;10.55;100.00;93435.38;5073205;28;20263;-76
2021/05/21 09:40:00;;;;;;;1.13;0.80;;;;;;;10.52;100.00;93435.78;5073391;28;20202;-77
2021/05/21 09:42:26;;;;;;;1.20;0.90;;;;;;;10.59;100.00;93448.81;5072990;28;20538;-77
2021/05/21 09:44:52;;;;;;;0.83;0.80;;;;;;;10.42;100.00;93445.88;5072918;28;20229;-76
2021/05/21 09:47:18;;;;;;;1.13;0.90;;;;;;;10.36;100.00;93443.09;5073081;28;20206;-76
2021/05/21 09:49:45;;;;;;;3.23;0.80;;;;;;;10.39;100.00;93446.28;5072990;28;20203;-76
2021/05/21 09:52:14;;;;;;;0.87;0.80;;;;;;;10.40;100.00;93442.69;5073269;28;20198;-77
2021/05/21 09:54:50;;;;;;;1.23;0.80;;;;;;;10.34;100.00;93445.13;5073116;28;20234;-76
2021/05/21 09:57:16;;;;;;;2.13;1.20;;;;;;;10.38;100.00;93437.69;5073009;28;20197;-78
2021/05/21 09:59:44;;;;;;;1.03;0.90;;;;;;;10.41;100.00;93459.94;5072883;28;20653;-76
2021/05/21 10:02:22;;;;;;;1.60;0.80;;;;;;;10.13;100.00;93459.19;5072867;28;20253;-78
2021/05/21 10:04:49;;;;;;;1.73;0.97;;;;;;;9.97;100.00;93470.88;5072769;28;20201;-77
2021/05/21 10:07:16;;;;;;;2.47;1.20;;;;;;;9.98;100.00;93462.06;5075426;28;20198;-77
2021/05/21 10:09:42;;;;;;;0.80;0.70;;;;;;;10.07;100.00;93459.22;5072941;28;20203;-77
2021/05/21 10:12:09;;;;;;;1.53;0.80;;;;;;;9.98;100.00;93462.06;5072803;28;20198;-77
2021/05/21 10:14:35;;;;;;;1.67;0.80;;;;;;;10.05;100.00;93467.25;5072767;28;20222;-77
2021/05/21 10:17:02;;;;;;;1.67;0.90;;;;;;;9.80;100.00;93464.50;5072519;28;20202;-77
2021/05/21 10:19:28;;;;;;;1.33;0.90;;;;;;;9.79;100.00;93462.88;5072705;28;20199;-78
2021/05/21 10:21:55;;;;;;;1.00;0.90;;;;;;;9.63;100.00;93467.53;5072491;28;20238;-77
2021/05/21 10:24:23;;;;;;;1.47;1.00;;;;;;;9.66;100.00;93465.50;5072658;28;20212;-78
2021/05/21 10:26:54;;;;;;;6.27;1.07;;;;;;;9.60;100.00;93454.88;5072696;28;20207;-78
2021/05/21 10:29:23;;;;;;;1.73;1.10;;;;;;;9.48;100.00;93464.34;5072570;28;20195;-77
2021/05/21 10:31:51;;;;;;;2.63;0.90;;;;;;;9.49;100.00;93471.13;5072813;28;20290;-79
2021/05/21 10:34:18;;;;;;;3.03;1.90;;;;;;;9.43;100.00;93474.56;5072524;28;20230;-78
2021/05/21 10:36:45;;;;;;;1.83;1.23;;;;;;;9.49;100.00;93463.31;5072768;28;20194;-77
2021/05/21 10:39:15;;;;;;;3.30;1.90;;;;;;;9.48;100.00;93461.72;5072590;28;20206;-77
2021/05/21 10:41:50;;;;;;;1.77;1.30;;;;;;;9.57;100.00;93460.50;5072531;28;20202;-77
2021/05/21 10:44:20;;;;;;;3.57;1.70;;;;;;;9.76;100.00;93443.25;5072542;28;20211;-78
2021/05/21 10:46:48;;;;;;;2.27;1.00;;;;;;;9.85;100.00;93425.56;5072577;28;20195;-77
2021/05/21 10:49:24;;;;;;;1.27;0.70;;;;;;;10.11;100.00;93429.13;5072293;28;20680;-77
2021/05/21 10:51:52;;;;;;;1.50;0.90;;;;;;;10.23;100.00;93443.13;5072466;28;20203;-76
2021/05/21 10:54:30;;;;;;;0.80;0.80;;;;;;;10.43;100.00;93430.03;5072203;28;20316;-78
2021/05/21 10:57:09;;;;;;;1.03;0.60;;;;;;;10.47;100.00;93422.56;5072475;28;20244;-77
2021/05/21 10:59:42;;;;;;;4.80;0.70;;;;;;;10.82;100.00;93425.59;5072502;28;20217;-77
2021/05/21 11:02:09;;;;;;;1.83;1.03;;;;;;;10.83;100.00;93444.69;5072252;28;20202;-78
2021/05/21 11:04:35;;;;;;;1.10;1.00;;;;;;;10.68;100.00;93431.91;5074332;28;20664;-76
2021/05/21 11:07:03;;;;;;;0.63;0.63;;;;;;;10.67;100.00;93430.31;5075875;28;20199;-77
2021/05/21 11:09:31;;;;;;;20.80;9.17;;;;;;;10.68;100.00;93430.09;5075825;28;20214;-77
2021/05/21 11:12:05;;;;;;;3.23;0.80;;;;;;;10.50;100.00;93432.59;5076103;28;20195;-77
2021/05/21 11:14:34;;;;;;;0.80;0.80;;;;;;;10.26;100.00;93436.69;5075868;28;20223;-76
2021/05/21 11:17:08;;;;;;;0.70;0.70;;;;;;;10.55;100.00;93430.16;5076035;28;20207;-76
2021/05/21 11:19:35;;;;;;;2.13;1.47;;;;;;;10.74;100.00;93431.88;5076079;28;20202;-76
2021/05/21 11:22:12;;;;;;;1.83;1.10;;;;;;;10.96;100.00;93430.72;5075848;28;20234;-76
2021/05/21 11:24:42;;;;;;;2.60;1.10;;;;;;;11.00;100.00;93432.72;5075731;28;20202;-77
2021/05/21 11:27:11;;;;;;;4.37;2.33;;;;;;;10.61;100.00;93429.34;5075659;28;20198;-76
2021/05/21 11:29:42;;;;;;;2.07;1.50;;;;;;;10.80;100.00;93429.44;5075695;28;20203;-79
2021/05/21 11:32:09;;;;;;;2.80;1.70;;;;;;;10.85;100.00;93430.38;5075817;28;20234;-77
2021/05/21 11:34:35;;;;;;;1.70;1.17;;;;;;;10.88;100.00;93444.84;5075663;28;20236;-77
2021/05/21 11:37:02;;;;;;;1.13;0.90;;;;;;;10.54;100.00;93434.59;5075545;28;20286;-76